sensor_id;sensor_type;location;lat;lon;timestamp;P1;durP1;ratioP1;P2;durP2;ratioP2
61617;SDS011;47518;51.776;9.370;2023-05-07T00:01:55;16.23;;;13.48;;
61617;SDS011;47518;51.776;9.370;2023-05-07T00:04:21;19.00;;;13.40;;
61617;SDS011;47518;51.776;9.370;2023-05-07T00:06:46;17.33;;;14.23;;
61617;SDS011;47518;51.776;9.370;2023-05-07T00:09:12;20.45;;;14.40;;
61617;SDS011;47518;51.776;9.370;2023-05-07T00:11:37;16.75;;;14.07;;
61617;SDS011;47518;51.776;9.370;2023-05-07T00:14:06;17.23;;;13.30;;
61617;SDS011;47518;51.776;9.370;2023-05-07T00:16:31;19.27;;;14.95;;
61617;SDS011;47518;51.776;9.370;2023-05-07T00:18:57;16.63;;;14.40;;
61617;SDS011;47518;51.776;9.370;2023-05-07T00:21:22;16.75;;;14.02;;
61617;SDS011;47518;51.776;9.370;2023-05-07T00:23:47;20.45;;;15.13;;
61617;SDS011;47518;51.776;9.370;2023-05-07T00:26:13;18.05;;;14.32;;
61617;SDS011;47518;51.776;9.370;2023-05-07T00:28:38;17.63;;;14.30;;
61617;SDS011;47518;51.776;9.370;2023-05-07T00:31:04;16.00;;;14.10;;
61617;SDS011;47518;51.776;9.370;2023-05-07T00:33:29;17.90;;;13.93;;
61617;SDS011;47518;51.776;9.370;2023-05-07T00:35:55;17.60;;;14.30;;
61617;SDS011;47518;51.776;9.370;2023-05-07T00:38:20;16.85;;;14.07;;
61617;SDS011;47518;51.776;9.370;2023-05-07T00:40:46;17.58;;;13.75;;
61617;SDS011;47518;51.776;9.370;2023-05-07T00:43:11;16.67;;;13.45;;
61617;SDS011;47518;51.776;9.370;2023-05-07T00:45:37;15.57;;;13.68;;
61617;SDS011;47518;51.776;9.370;2023-05-07T00:48:03;18.45;;;13.98;;
61617;SDS011;47518;51.776;9.370;2023-05-07T00:50:29;18.58;;;14.00;;
61617;SDS011;47518;51.776;9.370;2023-05-07T00:52:56;20.00;;;14.43;;
61617;SDS011;47518;51.776;9.370;2023-05-07T00:55:22;19.58;;;14.63;;
61617;SDS011;47518;51.776;9.370;2023-05-07T00:57:48;18.90;;;15.18;;
61617;SDS011;47518;51.776;9.370;2023-05-07T01:00:15;17.88;;;15.02;;
61617;SDS011;47518;51.776;9.370;2023-05-07T01:02:41;17.92;;;14.60;;
61617;SDS011;47518;51.776;9.370;2023-05-07T01:05:16;17.27;;;13.88;;
61617;SDS011;47518;51.776;9.370;2023-05-07T01:07:46;16.77;;;14.32;;
61617;SDS011;47518;51.776;9.370;2023-05-07T01:10:13;19.10;;;15.10;;
61617;SDS011;47518;51.776;9.370;2023-05-07T01:12:39;20.75;;;15.55;;
61617;SDS011;47518;51.776;9.370;2023-05-07T01:15:06;21.27;;;16.55;;
61617;SDS011;47518;51.776;9.370;2023-05-07T01:17:35;22.08;;;15.15;;
61617;SDS011;47518;51.776;9.370;2023-05-07T01:20:07;19.25;;;15.70;;
61617;SDS011;47518;51.776;9.370;2023-05-07T01:22:43;17.95;;;15.38;;
61617;SDS011;47518;51.776;9.370;2023-05-07T01:25:09;17.75;;;14.60;;
61617;SDS011;47518;51.776;9.370;2023-05-07T01:27:34;18.10;;;15.18;;
61617;SDS011;47518;51.776;9.370;2023-05-07T01:30:01;18.63;;;14.70;;
61617;SDS011;47518;51.776;9.370;2023-05-07T01:35:15;21.23;;;15.75;;
61617;SDS011;47518;51.776;9.370;2023-05-07T01:37:47;22.17;;;16.88;;
61617;SDS011;47518;51.776;9.370;2023-05-07T01:40:13;18.98;;;14.80;;
61617;SDS011;47518;51.776;9.370;2023-05-07T01:42:39;21.45;;;16.63;;
61617;SDS011;47518;51.776;9.370;2023-05-07T01:45:06;20.55;;;16.15;;
61617;SDS011;47518;51.776;9.370;2023-05-07T01:47:35;20.52;;;16.00;;
61617;SDS011;47518;51.776;9.370;2023-05-07T01:50:02;21.33;;;16.80;;
61617;SDS011;47518;51.776;9.370;2023-05-07T01:52:30;19.55;;;15.60;;
61617;SDS011;47518;51.776;9.370;2023-05-07T01:54:56;21.02;;;16.90;;
61617;SDS011;47518;51.776;9.370;2023-05-07T01:57:21;23.02;;;15.93;;
61617;SDS011;47518;51.776;9.370;2023-05-07T01:59:47;20.73;;;15.80;;
61617;SDS011;47518;51.776;9.370;2023-05-07T02:02:12;21.05;;;16.92;;
61617;SDS011;47518;51.776;9.370;2023-05-07T02:04:37;22.45;;;16.10;;
61617;SDS011;47518;51.776;9.370;2023-05-07T02:07:02;21.27;;;15.85;;
61617;SDS011;47518;51.776;9.370;2023-05-07T02:09:28;24.25;;;16.50;;
61617;SDS011;47518;51.776;9.370;2023-05-07T02:11:53;20.25;;;15.75;;
61617;SDS011;47518;51.776;9.370;2023-05-07T02:14:18;19.13;;;15.02;;
61617;SDS011;47518;51.776;9.370;2023-05-07T02:16:45;21.80;;;15.48;;
61617;SDS011;47518;51.776;9.370;2023-05-07T02:19:10;19.48;;;15.35;;
61617;SDS011;47518;51.776;9.370;2023-05-07T02:21:35;18.15;;;14.50;;
61617;SDS011;47518;51.776;9.370;2023-05-07T02:24:01;18.40;;;14.02;;
61617;SDS011;47518;51.776;9.370;2023-05-07T02:26:26;19.52;;;14.98;;
61617;SDS011;47518;51.776;9.370;2023-05-07T02:28:51;20.40;;;16.23;;
61617;SDS011;47518;51.776;9.370;2023-05-07T02:31:17;19.00;;;15.05;;
61617;SDS011;47518;51.776;9.370;2023-05-07T02:33:42;20.33;;;15.48;;
61617;SDS011;47518;51.776;9.370;2023-05-07T02:36:08;19.60;;;15.57;;
61617;SDS011;47518;51.776;9.370;2023-05-07T02:38:35;24.17;;;16.75;;
61617;SDS011;47518;51.776;9.370;2023-05-07T02:41:01;22.33;;;15.55;;
61617;SDS011;47518;51.776;9.370;2023-05-07T02:43:26;22.08;;;15.98;;
61617;SDS011;47518;51.776;9.370;2023-05-07T02:46:00;20.08;;;16.35;;
61617;SDS011;47518;51.776;9.370;2023-05-07T02:48:29;22.70;;;16.55;;
61617;SDS011;47518;51.776;9.370;2023-05-07T02:50:54;22.92;;;16.48;;
61617;SDS011;47518;51.776;9.370;2023-05-07T02:53:20;24.83;;;17.00;;
61617;SDS011;47518;51.776;9.370;2023-05-07T02:55:45;22.00;;;16.77;;
61617;SDS011;47518;51.776;9.370;2023-05-07T02:58:10;23.08;;;17.08;;
61617;SDS011;47518;51.776;9.370;2023-05-07T03:00:36;20.80;;;16.88;;
61617;SDS011;47518;51.776;9.370;2023-05-07T03:03:01;21.38;;;17.02;;
61617;SDS011;47518;51.776;9.370;2023-05-07T03:05:26;23.90;;;17.10;;
61617;SDS011;47518;51.776;9.370;2023-05-07T03:07:55;23.55;;;17.27;;
61617;SDS011;47518;51.776;9.370;2023-05-07T03:10:20;24.08;;;17.48;;
61617;SDS011;47518;51.776;9.370;2023-05-07T03:12:45;25.83;;;17.10;;
61617;SDS011;47518;51.776;9.370;2023-05-07T03:15:11;23.92;;;17.27;;
61617;SDS011;47518;51.776;9.370;2023-05-07T03:17:37;24.27;;;18.20;;
61617;SDS011;47518;51.776;9.370;2023-05-07T03:20:03;22.08;;;17.48;;
61617;SDS011;47518;51.776;9.370;2023-05-07T03:22:29;19.85;;;16.00;;
61617;SDS011;47518;51.776;9.370;2023-05-07T03:24:54;24.27;;;17.83;;
61617;SDS011;47518;51.776;9.370;2023-05-07T03:27:20;21.40;;;17.05;;
61617;SDS011;47518;51.776;9.370;2023-05-07T03:29:45;23.42;;;17.70;;
61617;SDS011;47518;51.776;9.370;2023-05-07T03:32:10;23.40;;;16.85;;
61617;SDS011;47518;51.776;9.370;2023-05-07T03:34:36;25.15;;;17.83;;
61617;SDS011;47518;51.776;9.370;2023-05-07T03:37:01;24.88;;;17.40;;
61617;SDS011;47518;51.776;9.370;2023-05-07T03:39:26;23.48;;;17.25;;
61617;SDS011;47518;51.776;9.370;2023-05-07T03:41:52;25.45;;;17.63;;
61617;SDS011;47518;51.776;9.370;2023-05-07T03:44:17;22.17;;;16.60;;
61617;SDS011;47518;51.776;9.370;2023-05-07T03:46:43;23.05;;;16.40;;
61617;SDS011;47518;51.776;9.370;2023-05-07T03:49:08;22.05;;;17.10;;
61617;SDS011;47518;51.776;9.370;2023-05-07T03:51:33;21.65;;;17.00;;
61617;SDS011;47518;51.776;9.370;2023-05-07T03:54:01;22.35;;;16.02;;
61617;SDS011;47518;51.776;9.370;2023-05-07T03:56:26;20.95;;;16.15;;
61617;SDS011;47518;51.776;9.370;2023-05-07T03:58:52;22.75;;;16.27;;
61617;SDS011;47518;51.776;9.370;2023-05-07T04:01:18;21.98;;;16.30;;
61617;SDS011;47518;51.776;9.370;2023-05-07T04:03:43;21.55;;;16.42;;
61617;SDS011;47518;51.776;9.370;2023-05-07T04:06:09;21.17;;;16.30;;
61617;SDS011;47518;51.776;9.370;2023-05-07T04:08:34;21.33;;;15.80;;
61617;SDS011;47518;51.776;9.370;2023-05-07T04:10:59;19.67;;;15.68;;
61617;SDS011;47518;51.776;9.370;2023-05-07T04:13:25;22.13;;;15.77;;
61617;SDS011;47518;51.776;9.370;2023-05-07T04:15:51;19.92;;;15.18;;
61617;SDS011;47518;51.776;9.370;2023-05-07T04:18:17;22.60;;;15.07;;
61617;SDS011;47518;51.776;9.370;2023-05-07T04:20:42;21.98;;;16.45;;
61617;SDS011;47518;51.776;9.370;2023-05-07T04:23:08;19.85;;;15.07;;
61617;SDS011;47518;51.776;9.370;2023-05-07T04:25:33;20.95;;;15.07;;
61617;SDS011;47518;51.776;9.370;2023-05-07T04:27:59;20.80;;;15.73;;
61617;SDS011;47518;51.776;9.370;2023-05-07T04:30:25;20.85;;;14.95;;
61617;SDS011;47518;51.776;9.370;2023-05-07T04:32:50;21.98;;;15.27;;
61617;SDS011;47518;51.776;9.370;2023-05-07T04:35:16;20.50;;;15.25;;
61617;SDS011;47518;51.776;9.370;2023-05-07T04:37:42;21.58;;;15.45;;
61617;SDS011;47518;51.776;9.370;2023-05-07T04:40:07;18.95;;;14.85;;
61617;SDS011;47518;51.776;9.370;2023-05-07T04:42:33;19.30;;;14.93;;
61617;SDS011;47518;51.776;9.370;2023-05-07T04:44:58;19.42;;;14.77;;
61617;SDS011;47518;51.776;9.370;2023-05-07T04:47:23;22.08;;;14.32;;
61617;SDS011;47518;51.776;9.370;2023-05-07T04:49:49;20.23;;;14.48;;
61617;SDS011;47518;51.776;9.370;2023-05-07T04:52:14;18.20;;;13.35;;
61617;SDS011;47518;51.776;9.370;2023-05-07T04:54:40;19.83;;;14.40;;
61617;SDS011;47518;51.776;9.370;2023-05-07T04:57:05;22.20;;;13.80;;
61617;SDS011;47518;51.776;9.370;2023-05-07T04:59:32;19.27;;;13.20;;
61617;SDS011;47518;51.776;9.370;2023-05-07T05:01:57;17.35;;;13.55;;
61617;SDS011;47518;51.776;9.370;2023-05-07T05:04:23;16.60;;;12.45;;
61617;SDS011;47518;51.776;9.370;2023-05-07T05:06:48;14.77;;;12.48;;
61617;SDS011;47518;51.776;9.370;2023-05-07T05:09:13;16.52;;;13.13;;
61617;SDS011;47518;51.776;9.370;2023-05-07T05:11:39;16.77;;;11.93;;
61617;SDS011;47518;51.776;9.370;2023-05-07T05:14:05;16.60;;;13.27;;
61617;SDS011;47518;51.776;9.370;2023-05-07T05:16:30;17.17;;;13.23;;
61617;SDS011;47518;51.776;9.370;2023-05-07T05:18:55;15.82;;;12.73;;
61617;SDS011;47518;51.776;9.370;2023-05-07T05:21:21;17.80;;;12.95;;
61617;SDS011;47518;51.776;9.370;2023-05-07T05:23:46;16.98;;;13.02;;
61617;SDS011;47518;51.776;9.370;2023-05-07T05:26:12;16.42;;;12.40;;
61617;SDS011;47518;51.776;9.370;2023-05-07T05:28:37;17.45;;;12.63;;
61617;SDS011;47518;51.776;9.370;2023-05-07T05:31:03;17.05;;;12.55;;
61617;SDS011;47518;51.776;9.370;2023-05-07T05:33:29;15.82;;;12.18;;
61617;SDS011;47518;51.776;9.370;2023-05-07T05:35:54;15.48;;;12.40;;
61617;SDS011;47518;51.776;9.370;2023-05-07T05:38:19;15.35;;;12.13;;
61617;SDS011;47518;51.776;9.370;2023-05-07T05:40:47;14.10;;;11.63;;
61617;SDS011;47518;51.776;9.370;2023-05-07T05:43:13;15.48;;;12.40;;
61617;SDS011;47518;51.776;9.370;2023-05-07T05:45:39;16.85;;;11.80;;
61617;SDS011;47518;51.776;9.370;2023-05-07T05:48:07;16.13;;;12.38;;
61617;SDS011;47518;51.776;9.370;2023-05-07T05:50:33;14.43;;;11.57;;
61617;SDS011;47518;51.776;9.370;2023-05-07T05:53:00;15.85;;;12.38;;
61617;SDS011;47518;51.776;9.370;2023-05-07T05:55:26;14.55;;;11.80;;
61617;SDS011;47518;51.776;9.370;2023-05-07T05:57:51;14.93;;;11.43;;
61617;SDS011;47518;51.776;9.370;2023-05-07T06:00:17;13.55;;;11.40;;
61617;SDS011;47518;51.776;9.370;2023-05-07T06:02:42;16.45;;;12.70;;
61617;SDS011;47518;51.776;9.370;2023-05-07T06:05:08;16.52;;;11.52;;
61617;SDS011;47518;51.776;9.370;2023-05-07T06:07:34;14.50;;;10.82;;
61617;SDS011;47518;51.776;9.370;2023-05-07T06:25:05;15.90;;;13.07;;
61617;SDS011;47518;51.776;9.370;2023-05-07T06:27:31;16.45;;;13.38;;
61617;SDS011;47518;51.776;9.370;2023-05-07T06:29:56;15.10;;;12.10;;
61617;SDS011;47518;51.776;9.370;2023-05-07T06:32:22;14.68;;;11.90;;
61617;SDS011;47518;51.776;9.370;2023-05-07T06:34:47;16.23;;;12.65;;
61617;SDS011;47518;51.776;9.370;2023-05-07T06:37:12;15.52;;;12.20;;
61617;SDS011;47518;51.776;9.370;2023-05-07T06:39:37;13.27;;;11.80;;
61617;SDS011;47518;51.776;9.370;2023-05-07T06:42:03;14.35;;;12.30;;
61617;SDS011;47518;51.776;9.370;2023-05-07T06:44:29;13.43;;;11.80;;
61617;SDS011;47518;51.776;9.370;2023-05-07T06:46:55;14.23;;;11.20;;
61617;SDS011;47518;51.776;9.370;2023-05-07T06:49:20;11.75;;;9.98;;
61617;SDS011;47518;51.776;9.370;2023-05-07T06:51:45;12.50;;;10.80;;
61617;SDS011;47518;51.776;9.370;2023-05-07T06:54:11;11.63;;;10.02;;
61617;SDS011;47518;51.776;9.370;2023-05-07T06:56:36;13.60;;;11.55;;
61617;SDS011;47518;51.776;9.370;2023-05-07T06:59:02;11.85;;;10.23;;
61617;SDS011;47518;51.776;9.370;2023-05-07T07:01:28;13.25;;;10.70;;
61617;SDS011;47518;51.776;9.370;2023-05-07T07:03:53;11.88;;;10.68;;
61617;SDS011;47518;51.776;9.370;2023-05-07T07:06:18;12.32;;;10.48;;
61617;SDS011;47518;51.776;9.370;2023-05-07T07:08:44;12.13;;;10.48;;
61617;SDS011;47518;51.776;9.370;2023-05-07T07:11:09;12.20;;;10.52;;
61617;SDS011;47518;51.776;9.370;2023-05-07T07:13:35;11.82;;;9.98;;
61617;SDS011;47518;51.776;9.370;2023-05-07T07:16:01;10.95;;;9.82;;
61617;SDS011;47518;51.776;9.370;2023-05-07T07:18:26;12.77;;;10.00;;
61617;SDS011;47518;51.776;9.370;2023-05-07T07:20:52;11.48;;;9.80;;
61617;SDS011;47518;51.776;9.370;2023-05-07T07:23:18;11.52;;;9.52;;
61617;SDS011;47518;51.776;9.370;2023-05-07T07:25:43;11.32;;;9.60;;
61617;SDS011;47518;51.776;9.370;2023-05-07T07:28:08;11.88;;;10.10;;
61617;SDS011;47518;51.776;9.370;2023-05-07T07:30:34;12.60;;;9.82;;
61617;SDS011;47518;51.776;9.370;2023-05-07T07:32:59;11.75;;;9.80;;
61617;SDS011;47518;51.776;9.370;2023-05-07T07:35:32;10.35;;;9.25;;
61617;SDS011;47518;51.776;9.370;2023-05-07T07:38:01;11.07;;;9.90;;
61617;SDS011;47518;51.776;9.370;2023-05-07T07:40:26;12.40;;;10.45;;
61617;SDS011;47518;51.776;9.370;2023-05-07T07:42:52;12.20;;;10.68;;
61617;SDS011;47518;51.776;9.370;2023-05-07T07:45:18;13.40;;;10.25;;
61617;SDS011;47518;51.776;9.370;2023-05-07T07:47:44;13.25;;;10.20;;
61617;SDS011;47518;51.776;9.370;2023-05-07T07:50:09;13.30;;;10.13;;
61617;SDS011;47518;51.776;9.370;2023-05-07T07:52:35;12.85;;;9.63;;
61617;SDS011;47518;51.776;9.370;2023-05-07T07:55:00;10.85;;;9.52;;
61617;SDS011;47518;51.776;9.370;2023-05-07T07:57:27;12.95;;;9.43;;
61617;SDS011;47518;51.776;9.370;2023-05-07T07:59:52;11.48;;;9.50;;
61617;SDS011;47518;51.776;9.370;2023-05-07T08:02:17;12.20;;;9.95;;
61617;SDS011;47518;51.776;9.370;2023-05-07T08:04:43;13.07;;;10.07;;
61617;SDS011;47518;51.776;9.370;2023-05-07T08:07:09;12.27;;;10.27;;
61617;SDS011;47518;51.776;9.370;2023-05-07T08:09:35;11.88;;;9.95;;
61617;SDS011;47518;51.776;9.370;2023-05-07T08:12:00;11.52;;;9.63;;
61617;SDS011;47518;51.776;9.370;2023-05-07T08:14:26;10.93;;;8.80;;
61617;SDS011;47518;51.776;9.370;2023-05-07T08:16:53;12.40;;;9.13;;
61617;SDS011;47518;51.776;9.370;2023-05-07T08:19:19;11.70;;;9.15;;
61617;SDS011;47518;51.776;9.370;2023-05-07T08:21:45;10.60;;;8.70;;
61617;SDS011;47518;51.776;9.370;2023-05-07T08:24:12;10.25;;;9.00;;
61617;SDS011;47518;51.776;9.370;2023-05-07T08:26:38;11.93;;;8.35;;
61617;SDS011;47518;51.776;9.370;2023-05-07T08:29:04;9.48;;;7.90;;
61617;SDS011;47518;51.776;9.370;2023-05-07T08:31:29;9.13;;;7.97;;
61617;SDS011;47518;51.776;9.370;2023-05-07T08:33:55;10.55;;;8.20;;
61617;SDS011;47518;51.776;9.370;2023-05-07T08:36:20;8.90;;;7.90;;
61617;SDS011;47518;51.776;9.370;2023-05-07T08:38:46;9.07;;;8.00;;
61617;SDS011;47518;51.776;9.370;2023-05-07T08:41:11;11.65;;;7.70;;
61617;SDS011;47518;51.776;9.370;2023-05-07T08:43:36;8.75;;;7.22;;
61617;SDS011;47518;51.776;9.370;2023-05-07T08:46:03;8.90;;;7.63;;
61617;SDS011;47518;51.776;9.370;2023-05-07T08:48:29;9.93;;;7.70;;
61617;SDS011;47518;51.776;9.370;2023-05-07T08:50:57;8.73;;;7.30;;
61617;SDS011;47518;51.776;9.370;2023-05-07T08:53:23;8.60;;;7.45;;
61617;SDS011;47518;51.776;9.370;2023-05-07T08:55:49;7.82;;;7.10;;
61617;SDS011;47518;51.776;9.370;2023-05-07T08:58:15;8.43;;;7.30;;
61617;SDS011;47518;51.776;9.370;2023-05-07T09:00:40;8.38;;;6.82;;
61617;SDS011;47518;51.776;9.370;2023-05-07T09:03:07;9.40;;;6.80;;
61617;SDS011;47518;51.776;9.370;2023-05-07T09:05:32;8.77;;;6.65;;
61617;SDS011;47518;51.776;9.370;2023-05-07T09:08:07;8.65;;;6.45;;
61617;SDS011;47518;51.776;9.370;2023-05-07T09:10:32;9.90;;;7.45;;
61617;SDS011;47518;51.776;9.370;2023-05-07T09:12:58;11.15;;;7.80;;
61617;SDS011;47518;51.776;9.370;2023-05-07T09:15:24;11.18;;;7.70;;
61617;SDS011;47518;51.776;9.370;2023-05-07T09:17:50;8.50;;;7.32;;
61617;SDS011;47518;51.776;9.370;2023-05-07T09:20:15;9.45;;;7.38;;
61617;SDS011;47518;51.776;9.370;2023-05-07T09:22:41;9.75;;;7.13;;
61617;SDS011;47518;51.776;9.370;2023-05-07T09:25:07;7.88;;;6.75;;
61617;SDS011;47518;51.776;9.370;2023-05-07T09:27:34;7.35;;;6.60;;
61617;SDS011;47518;51.776;9.370;2023-05-07T09:30:02;7.30;;;6.60;;
61617;SDS011;47518;51.776;9.370;2023-05-07T09:32:28;8.18;;;6.50;;
61617;SDS011;47518;51.776;9.370;2023-05-07T09:34:55;7.50;;;6.40;;
61617;SDS011;47518;51.776;9.370;2023-05-07T09:37:20;6.35;;;5.75;;
61617;SDS011;47518;51.776;9.370;2023-05-07T09:39:47;8.02;;;6.10;;
61617;SDS011;47518;51.776;9.370;2023-05-07T09:42:14;6.38;;;5.78;;
61617;SDS011;47518;51.776;9.370;2023-05-07T09:44:40;6.32;;;5.43;;
61617;SDS011;47518;51.776;9.370;2023-05-07T09:47:06;6.30;;;5.38;;
61617;SDS011;47518;51.776;9.370;2023-05-07T09:49:34;6.88;;;5.85;;
61617;SDS011;47518;51.776;9.370;2023-05-07T09:52:01;5.93;;;5.32;;
61617;SDS011;47518;51.776;9.370;2023-05-07T09:54:28;6.35;;;5.70;;
61617;SDS011;47518;51.776;9.370;2023-05-07T09:56:55;8.43;;;6.40;;
61617;SDS011;47518;51.776;9.370;2023-05-07T09:59:22;6.20;;;5.60;;
61617;SDS011;47518;51.776;9.370;2023-05-07T10:01:47;6.70;;;5.78;;
61617;SDS011;47518;51.776;9.370;2023-05-07T10:04:14;5.88;;;5.28;;
61617;SDS011;47518;51.776;9.370;2023-05-07T10:06:40;6.25;;;5.50;;
61617;SDS011;47518;51.776;9.370;2023-05-07T10:09:06;6.50;;;5.90;;
61617;SDS011;47518;51.776;9.370;2023-05-07T10:11:33;6.68;;;5.82;;
61617;SDS011;47518;51.776;9.370;2023-05-07T10:13:59;6.65;;;5.93;;
61617;SDS011;47518;51.776;9.370;2023-05-07T10:16:27;6.20;;;5.47;;
61617;SDS011;47518;51.776;9.370;2023-05-07T10:18:54;6.40;;;5.47;;
61617;SDS011;47518;51.776;9.370;2023-05-07T10:21:20;6.80;;;5.38;;
61617;SDS011;47518;51.776;9.370;2023-05-07T10:23:49;6.78;;;5.95;;
61617;SDS011;47518;51.776;9.370;2023-05-07T10:26:18;7.32;;;5.68;;
61617;SDS011;47518;51.776;9.370;2023-05-07T10:28:48;6.03;;;5.43;;
61617;SDS011;47518;51.776;9.370;2023-05-07T10:34:15;6.82;;;6.13;;
61617;SDS011;47518;51.776;9.370;2023-05-07T10:36:44;6.60;;;6.00;;
61617;SDS011;47518;51.776;9.370;2023-05-07T10:39:10;7.00;;;5.85;;
61617;SDS011;47518;51.776;9.370;2023-05-07T10:41:35;6.85;;;6.15;;
61617;SDS011;47518;51.776;9.370;2023-05-07T10:44:01;9.10;;;5.97;;
61617;SDS011;47518;51.776;9.370;2023-05-07T10:46:27;8.60;;;6.30;;
61617;SDS011;47518;51.776;9.370;2023-05-07T10:51:37;6.68;;;5.97;;
61617;SDS011;47518;51.776;9.370;2023-05-07T10:56:57;6.85;;;5.90;;
61617;SDS011;47518;51.776;9.370;2023-05-07T10:59:57;7.90;;;6.07;;
61617;SDS011;47518;51.776;9.370;2023-05-07T11:02:23;7.03;;;6.30;;
61617;SDS011;47518;51.776;9.370;2023-05-07T11:05:28;6.53;;;5.93;;
61617;SDS011;47518;51.776;9.370;2023-05-07T11:08:07;9.02;;;6.28;;
61617;SDS011;47518;51.776;9.370;2023-05-07T11:13:47;7.38;;;6.30;;
61617;SDS011;47518;51.776;9.370;2023-05-07T11:16:21;6.95;;;6.10;;
61617;SDS011;47518;51.776;9.370;2023-05-07T11:21:41;8.00;;;7.20;;
61617;SDS011;47518;51.776;9.370;2023-05-07T11:24:09;11.20;;;7.32;;
61617;SDS011;47518;51.776;9.370;2023-05-07T11:26:43;7.75;;;6.82;;
61617;SDS011;47518;51.776;9.370;2023-05-07T11:29:11;6.88;;;6.18;;
61617;SDS011;47518;51.776;9.370;2023-05-07T11:31:38;7.47;;;6.78;;
61617;SDS011;47518;51.776;9.370;2023-05-07T11:34:04;7.82;;;7.03;;
61617;SDS011;47518;51.776;9.370;2023-05-07T11:36:31;8.52;;;7.35;;
61617;SDS011;47518;51.776;9.370;2023-05-07T11:38:57;8.95;;;7.85;;
61617;SDS011;47518;51.776;9.370;2023-05-07T11:41:22;11.77;;;8.55;;
61617;SDS011;47518;51.776;9.370;2023-05-07T11:44:03;10.15;;;8.10;;
61617;SDS011;47518;51.776;9.370;2023-05-07T11:46:28;9.98;;;7.97;;
61617;SDS011;47518;51.776;9.370;2023-05-07T11:49:01;9.77;;;8.20;;
61617;SDS011;47518;51.776;9.370;2023-05-07T11:51:26;9.02;;;8.15;;
61617;SDS011;47518;51.776;9.370;2023-05-07T11:53:51;9.45;;;8.48;;
61617;SDS011;47518;51.776;9.370;2023-05-07T11:56:18;9.32;;;8.10;;
61617;SDS011;47518;51.776;9.370;2023-05-07T11:58:44;9.85;;;8.68;;
61617;SDS011;47518;51.776;9.370;2023-05-07T12:01:11;9.85;;;8.52;;
61617;SDS011;47518;51.776;9.370;2023-05-07T12:03:39;8.52;;;7.70;;
61617;SDS011;47518;51.776;9.370;2023-05-07T12:06:07;9.18;;;8.27;;
61617;SDS011;47518;51.776;9.370;2023-05-07T12:08:35;9.52;;;8.52;;
61617;SDS011;47518;51.776;9.370;2023-05-07T12:11:02;9.38;;;8.35;;
61617;SDS011;47518;51.776;9.370;2023-05-07T12:13:27;10.63;;;8.32;;
61617;SDS011;47518;51.776;9.370;2023-05-07T12:15:53;10.77;;;8.65;;
61617;SDS011;47518;51.776;9.370;2023-05-07T12:18:21;10.82;;;9.05;;
61617;SDS011;47518;51.776;9.370;2023-05-07T12:20:48;11.18;;;9.40;;
61617;SDS011;47518;51.776;9.370;2023-05-07T12:23:14;10.75;;;9.05;;
61617;SDS011;47518;51.776;9.370;2023-05-07T12:25:40;10.57;;;9.45;;
61617;SDS011;47518;51.776;9.370;2023-05-07T12:30:41;10.95;;;9.07;;
61617;SDS011;47518;51.776;9.370;2023-05-07T12:33:08;10.68;;;8.38;;
61617;SDS011;47518;51.776;9.370;2023-05-07T12:35:43;9.05;;;8.15;;
61617;SDS011;47518;51.776;9.370;2023-05-07T12:38:14;9.88;;;8.65;;
61617;SDS011;47518;51.776;9.370;2023-05-07T12:40:45;12.07;;;9.68;;
61617;SDS011;47518;51.776;9.370;2023-05-07T12:43:17;9.90;;;8.80;;
61617;SDS011;47518;51.776;9.370;2023-05-07T12:45:46;11.75;;;9.00;;
61617;SDS011;47518;51.776;9.370;2023-05-07T12:48:12;10.90;;;8.60;;
61617;SDS011;47518;51.776;9.370;2023-05-07T12:50:38;10.73;;;9.63;;
61617;SDS011;47518;51.776;9.370;2023-05-07T12:53:04;11.82;;;10.27;;
61617;SDS011;47518;51.776;9.370;2023-05-07T12:55:31;11.27;;;9.30;;
61617;SDS011;47518;51.776;9.370;2023-05-07T12:57:57;10.30;;;9.30;;
61617;SDS011;47518;51.776;9.370;2023-05-07T13:00:41;10.57;;;9.48;;
61617;SDS011;47518;51.776;9.370;2023-05-07T13:03:08;11.02;;;9.82;;
61617;SDS011;47518;51.776;9.370;2023-05-07T13:05:39;11.82;;;9.77;;
61617;SDS011;47518;51.776;9.370;2023-05-07T13:08:07;12.95;;;9.90;;
61617;SDS011;47518;51.776;9.370;2023-05-07T13:10:34;12.30;;;10.05;;
61617;SDS011;47518;51.776;9.370;2023-05-07T13:13:00;23.17;;;17.15;;
61617;SDS011;47518;51.776;9.370;2023-05-07T13:15:25;11.30;;;10.18;;
61617;SDS011;47518;51.776;9.370;2023-05-07T13:17:52;11.30;;;9.95;;
61617;SDS011;47518;51.776;9.370;2023-05-07T13:20:17;13.30;;;10.63;;
61617;SDS011;47518;51.776;9.370;2023-05-07T13:22:42;11.90;;;10.48;;
61617;SDS011;47518;51.776;9.370;2023-05-07T13:25:08;11.40;;;10.13;;
61617;SDS011;47518;51.776;9.370;2023-05-07T13:27:33;12.40;;;10.80;;
61617;SDS011;47518;51.776;9.370;2023-05-07T13:30:02;11.68;;;10.48;;
61617;SDS011;47518;51.776;9.370;2023-05-07T13:32:29;12.15;;;10.10;;
61617;SDS011;47518;51.776;9.370;2023-05-07T13:34:55;10.48;;;9.48;;
61617;SDS011;47518;51.776;9.370;2023-05-07T13:37:23;9.65;;;8.70;;
61617;SDS011;47518;51.776;9.370;2023-05-07T13:39:48;10.48;;;9.38;;
61617;SDS011;47518;51.776;9.370;2023-05-07T13:42:14;10.35;;;9.35;;
61617;SDS011;47518;51.776;9.370;2023-05-07T13:44:39;10.38;;;9.38;;
61617;SDS011;47518;51.776;9.370;2023-05-07T13:47:05;9.98;;;9.07;;
61617;SDS011;47518;51.776;9.370;2023-05-07T13:49:30;10.23;;;9.23;;
61617;SDS011;47518;51.776;9.370;2023-05-07T13:51:56;9.55;;;8.65;;
61617;SDS011;47518;51.776;9.370;2023-05-07T13:54:21;11.35;;;9.43;;
61617;SDS011;47518;51.776;9.370;2023-05-07T13:56:47;9.82;;;8.75;;
61617;SDS011;47518;51.776;9.370;2023-05-07T13:59:12;9.90;;;8.90;;
61617;SDS011;47518;51.776;9.370;2023-05-07T14:01:39;10.32;;;9.32;;
61617;SDS011;47518;51.776;9.370;2023-05-07T14:04:04;10.80;;;9.40;;
61617;SDS011;47518;51.776;9.370;2023-05-07T14:06:29;10.07;;;8.70;;
61617;SDS011;47518;51.776;9.370;2023-05-07T14:08:55;10.90;;;9.75;;
61617;SDS011;47518;51.776;9.370;2023-05-07T14:11:22;11.00;;;9.75;;
61617;SDS011;47518;51.776;9.370;2023-05-07T14:13:48;11.93;;;9.57;;
61617;SDS011;47518;51.776;9.370;2023-05-07T14:16:13;11.00;;;9.90;;
61617;SDS011;47518;51.776;9.370;2023-05-07T14:18:40;10.65;;;9.57;;
61617;SDS011;47518;51.776;9.370;2023-05-07T14:21:05;10.00;;;9.10;;
61617;SDS011;47518;51.776;9.370;2023-05-07T14:23:32;11.20;;;9.88;;
61617;SDS011;47518;51.776;9.370;2023-05-07T14:25:57;11.93;;;10.65;;
61617;SDS011;47518;51.776;9.370;2023-05-07T14:28:32;11.52;;;10.43;;
61617;SDS011;47518;51.776;9.370;2023-05-07T14:30:57;11.63;;;10.27;;
61617;SDS011;47518;51.776;9.370;2023-05-07T14:33:23;11.80;;;10.57;;
61617;SDS011;47518;51.776;9.370;2023-05-07T14:35:49;12.10;;;10.73;;
61617;SDS011;47518;51.776;9.370;2023-05-07T14:38:15;12.10;;;10.82;;
61617;SDS011;47518;51.776;9.370;2023-05-07T14:40:41;11.27;;;10.18;;
61617;SDS011;47518;51.776;9.370;2023-05-07T14:43:07;12.38;;;10.40;;
61617;SDS011;47518;51.776;9.370;2023-05-07T14:45:32;11.43;;;10.25;;
61617;SDS011;47518;51.776;9.370;2023-05-07T14:47:57;11.45;;;10.25;;
61617;SDS011;47518;51.776;9.370;2023-05-07T14:50:25;12.05;;;10.38;;
61617;SDS011;47518;51.776;9.370;2023-05-07T14:52:50;10.38;;;9.27;;
61617;SDS011;47518;51.776;9.370;2023-05-07T14:55:16;9.85;;;8.85;;
61617;SDS011;47518;51.776;9.370;2023-05-07T14:57:41;9.70;;;8.70;;
61617;SDS011;47518;51.776;9.370;2023-05-07T15:00:06;9.50;;;8.60;;
61617;SDS011;47518;51.776;9.370;2023-05-07T15:02:33;9.50;;;8.60;;